Latest Coastal Weather Observations for Cape Jaffa

IDS60701

Issued at 4:31 am CDT Saturday 21 October 2017 (issued every 10 minutes, with the page automatically refreshed every 10 minutes)

About coastal observations | Map of coastal stations | Coastal observations for SA | Marine services | Other Formats
Station Details ID: 026095 Name: THE LIMESTONE Lat: -36.97 Lon: 139.72 Height: 17.0 m
Data from the previous 72 hours. | See also: Recent months at Cape Jaffa
Date/Time
CDT
Temp
°C
Wind Pressure Rain since
9am
mm
Weather Cloud Vis
km
Sea
Height
m
Swell
Dir  Spd
kts
Gust
kts
hPa Trend Height
m
Period
s
Dir
21/04:30am 11.7 SSW 13 19 1028.8 - 0.0 - - - - - - -
21/04:00am 11.6 SW 13 17 1028.9 - 0.0 - - - - - - -
21/03:30am 11.9 SSW 11 17 1029.0 - 0.0 - - - - - - -
21/03:00am 11.7 SSW 11 16 1029.2 - 0.0 - - - - - - -
21/02:30am 11.8 SSW 10 14 1029.5 - 0.0 - - - - - - -
21/02:00am 11.8 SSW 11 15 1029.8 - 0.0 - - - - - - -
21/01:30am 11.8 SSW 9 14 1030.4 - 0.0 - - - - - - -
21/01:00am 11.8 SSW 10 14 1030.7 - 0.0 - - - - - - -
21/12:30am 11.5 SSE 6 8 1030.9 - 0.0 - - - - - - -
21/12:00am 11.4 S 11 15 1031.2 - 0.0 - - - - - - -
 
Date/Time
CDT
Temp
°C
Wind Pressure Rain since
9am
mm
Weather Cloud Vis
km
Sea
Height
m
Swell
Dir  Spd
kts
Gust
kts
hPa Trend Height
m
Period
s
Dir
20/11:30pm 11.8 S 10 16 1031.3 - 0.0 - - - - - - -
20/11:00pm 11.7 S 9 13 1031.6 - 0.0 - - - - - - -
20/10:30pm 11.7 S 13 18 1031.7 - 0.0 - - - - - - -
20/10:00pm 11.5 S 10 14 1032.0 - 0.0 - - - - - - -
20/09:30pm 11.7 SSE 9 15 1031.8 - 0.0 - - - - - - -
20/09:00pm 11.8 S 10 14 1031.8 - 0.0 - - - - - - -
20/08:30pm 12.0 S 12 18 1031.5 - 0.0 - - - - - - -
20/08:00pm 12.1 S 13 18 1031.2 - 0.0 - - - - - - -
20/07:30pm 12.2 S 12 19 1031.2 - 0.0 - - - - - - -
20/07:00pm 12.2 S 14 19 1030.9 - 0.0 - - - - - - -
20/06:30pm 12.1 S 15 20 1030.7 - 0.0 - - - - - - -
20/06:00pm 12.4 S 16 21 1030.7 - 0.0 - - - - - - -
20/05:30pm 13.9 SSW 16 21 1030.8 - 0.0 - - - - - - -
20/05:00pm 14.0 SSW 17 22 1030.7 - 0.0 - - - - - - -
20/04:30pm 13.6 SSW 15 21 1030.6 - 0.0 - - - - - - -
20/04:00pm 14.6 SSW 17 21 1030.6 - 0.0 - - - - - - -
20/03:30pm 14.8 S 15 22 1030.7 - 0.0 - - - - - - -
20/03:00pm 15.7 SSW 16 21 1030.8 - 0.0 - - - - - - -
20/02:30pm 15.0 SSW 17 21 1030.9 - 0.0 - - - - - - -
20/02:00pm 15.0 SSW 15 22 1031.2 - 0.0 - - - - - - -
20/01:30pm 16.4 SSW 15 20 1031.2 - 0.0 - - - - - - -
20/01:00pm 15.8 SSW 14 21 1031.1 - 0.0 - - - - - - -
20/12:30pm 15.6 SSW 14 20 1031.1 - 0.0 - - - - - - -
20/12:00pm 15.4 SSW 15 20 1031.3 - 0.0 - - - - - - -
20/11:30am 15.8 S 15 19 1031.5 - 0.0 - - - - - - -
20/11:00am 15.3 S 12 17 1031.5 - 0.0 - - - - - - -
20/10:30am 16.2 SSW 13 17 1031.5 - 0.0 - - - - - - -
20/10:00am 14.2 SSW 14 18 1031.2 - 0.0 - - - - - - -
20/09:30am 14.0 S 15 19 1030.9 - 0.0 - - - - - - -
20/09:00am 14.2 S 15 19 1030.5 - 0.2 - - - - - - -
20/08:30am 12.9 SSW 15 20 1030.3 - 0.2 - - - - - - -
20/08:00am 13.3 SSW 14 18 1030.0 - 0.2 - - - - - - -
20/07:30am 12.6 S 14 20 1029.7 - 0.2 - - - - - - -
20/07:00am 11.9 SSW 16 20 1029.3 - 0.2 - - - - - - -
20/06:30am 11.2 SSW 13 17 1028.7 - 0.2 - - - - - - -
20/06:00am 11.5 SSW 14 17 1028.2 - 0.2 - - - - - - -
20/05:30am 12.1 SSW 15 20 1027.8 - 0.2 - - - - - - -
20/05:00am 12.4 SSW 15 21 1027.5 - 0.2 - - - - - - -
20/04:30am 12.2 SSW 13 18 1027.3 - 0.2 - - - - - - -
20/04:00am 12.1 SSW 16 20 1027.0 - 0.2 - - - - - - -
20/03:30am 12.4 SSW 17 21 1026.8 - 0.2 - - - - - - -
20/03:00am 12.1 SSW 15 21 1026.8 - 0.2 - - - - - - -
20/02:30am 12.4 SSW 16 21 1026.7 - 0.2 - - - - - - -
20/02:00am 12.6 SSW 18 23 1026.6 - 0.2 - - - - - - -
20/01:30am 13.2 SW 16 21 1026.6 - 0.2 - - - - - - -
20/01:00am 13.3 SW 16 22 1026.6 - 0.2 - - - - - - -
20/12:30am 13.2 SW 15 22 1026.4 - 0.2 - - - - - - -
20/12:00am 13.2 SW 13 19 1026.2 - 0.2 - - - - - - -
 
Date/Time
CDT
Temp
°C
Wind Pressure Rain since
9am
mm
Weather Cloud Vis
km
Sea
Height
m
Swell
Dir  Spd
kts
Gust
kts
hPa Trend Height
m
Period
s
Dir
19/11:30pm 13.1 SW 15 21 1026.1 - 0.2 - - - - - - -
19/11:00pm 13.5 WSW 16 21 1025.9 - 0.2 - - - - - - -
19/10:30pm 13.3 WSW 16 23 1025.8 - 0.2 - - - - - - -
19/10:00pm 13.0 WSW 11 14 1025.7 - 0.2 - - - - - - -
19/09:30pm 13.6 WSW 16 21 1025.7 - 0.2 - - - - - - -
19/09:00pm 13.5 WSW 15 20 1025.5 - 0.2 - - - - - - -
19/08:30pm 13.6 WSW 15 20 1025.0 - 0.2 - - - - - - -
19/08:00pm 13.6 WSW 16 21 1024.6 - 0.2 - - - - - - -
19/07:30pm 13.8 WSW 15 19 1024.2 - 0.2 - - - - - - -
19/07:00pm 14.4 WSW 15 20 1023.9 - 0.2 - - - - - - -
19/06:30pm 14.4 WSW 16 20 1023.5 - 0.2 - - - - - - -
19/06:00pm 15.1 WSW 17 22 1023.1 - 0.2 - - - - - - -
19/05:30pm 15.6 WSW 19 23 1022.8 - 0.2 - - - - - - -
19/05:00pm 16.3 WSW 17 22 1022.6 - 0.2 - - - - - - -
19/04:30pm 16.3 WSW 17 21 1022.2 - 0.2 - - - - - - -
19/04:00pm 16.7 WSW 16 20 1022.2 - 0.2 - - - - - - -
19/03:30pm 17.0 WSW 17 23 1022.2 - 0.2 - - - - - - -
19/03:00pm 17.2 WSW 20 24 1021.9 - 0.2 - - - - - - -
19/02:30pm 16.7 WSW 18 22 1021.8 - 0.2 - - - - - - -
19/02:00pm 17.8 WSW 18 23 1021.7 - 0.2 - - - - - - -
19/01:30pm 16.6 WSW 18 22 1021.3 - 0.2 - - - - - - -
19/01:00pm 17.4 WSW 16 20 1021.6 - 0.2 - - - - - - -
19/12:30pm 16.7 WSW 16 20 1021.3 - 0.2 - - - - - - -
19/12:00pm 17.2 WSW 16 21 1020.9 - 0.2 - - - - - - -
19/11:30am 16.3 SW 17 22 1020.4 - 0.2 - - - - - - -
19/11:00am 16.0 WSW 17 21 1020.1 - 0.2 - - - - - - -
19/10:30am 16.4 WSW 16 21 1019.3 - 0.0 - - - - - - -
19/10:00am 15.9 WSW 15 20 1018.8 - 0.0 - - - - - - -
19/09:30am 15.7 SW 15 21 1018.2 - 0.0 - - - - - - -
19/09:00am 15.6 SW 14 19 1017.7 - 6.0 - - - - - - -
19/08:30am 15.3 SW 16 21 1017.0 - 6.0 - - - - - - -
19/08:00am 15.4 SW 15 20 1016.6 - 6.0 - - - - - - -
19/07:30am 15.9 WSW 16 21 1015.9 - 6.0 - - - - - - -
19/07:00am 17.3 NW 10 13 1015.2 - 6.0 - - - - - - -
19/06:30am 17.4 NNW 11 17 1014.6 - 6.0 - - - - - - -
19/06:00am 17.3 NNW 8 11 1014.2 - 6.0 - - - - - - -
19/05:30am 17.4 N 9 12 1013.7 - 6.0 - - - - - - -
19/05:00am 17.3 NNE 11 14 1013.2 - 6.0 - - - - - - -
19/04:30am 17.4 NNE 10 14 1013.3 - 6.0 - - - - - - -
19/04:00am 17.4 NNE 11 17 1013.5 - 6.0 - - - - - - -
19/03:30am 17.2 NE 11 14 1012.6 - 5.8 - - - - - - -
19/03:00am 17.1 NE 10 13 1013.3 - 5.6 Rain - - - - - -
19/02:30am 17.1 NE 6 8 1013.4 - 4.8 - - - - - - -
19/02:00am 17.4 NW 6 8 1014.8 - 3.0 - - - - - - -
19/01:30am 17.6 W 6 9 1014.7 - 0.6 - - - - - - -
19/01:00am 18.0 WSW 8 10 1014.5 - 0.6 - - - - - - -
19/12:30am 18.0 WSW 11 14 1014.4 - 0.6 - - - - - - -
19/12:00am 18.2 WSW 11 16 1014.8 - 0.6 - - - - - - -
 
Date/Time
CDT
Temp
°C
Wind Pressure Rain since
9am
mm
Weather Cloud Vis
km
Sea
Height
m
Swell
Dir  Spd
kts
Gust
kts
hPa Trend Height
m
Period
s
Dir
18/11:30pm 18.5 SW 11 13 1014.0 - 0.6 - - - - - - -
18/11:00pm 18.4 WSW 11 13 1014.3 - 0.6 - - - - - - -
18/10:30pm 19.3 WSW 14 17 1014.3 - 0.4 - - - - - - -
18/10:00pm 19.8 W 12 19 1014.7 - 0.2 - - - - - - -
18/09:30pm 21.1 SW 8 9 1013.4 - 0.0 - - - - - - -
18/09:00pm 21.3 SW 10 15 1013.3 - 0.0 - - - - - - -
18/08:50pm 22.7 WSW 15 19 1013.9 - 0.0 - - - - - - -
18/08:30pm 22.0 E 3 5 1013.0 - 0.0 - - - - - - -
18/08:00pm 22.6 ENE 7 9 1012.5 - 0.0 - - - - - - -
18/07:30pm 25.2 WNW 2 3 1012.3 - 0.0 - - - - - - -
18/07:00pm 24.9 W 3 3 1012.2 - 0.0 - - - - - - -
18/06:30pm 26.4 W 4 5 1012.3 - 0.0 - - - - - - -
18/06:00pm 26.8 W 6 8 1012.4 - 0.0 - - - - - - -
18/05:30pm 29.3 W 9 11 1012.3 - 0.0 - - - - - - -
18/05:00pm 29.1 WNW 10 14 1012.3 - 0.0 - - - - - - -
18/04:30pm 27.8 WNW 11 13 1012.5 - 0.0 - - - - - - -
18/04:00pm 30.7 NW 11 15 1012.6 - 0.0 - - - - - - -
18/03:30pm 30.4 NNW 12 16 1013.0 - 0.0 - - - - - - -
18/03:00pm 30.1 NNW 14 18 1013.2 - 0.0 - - - - - - -
18/02:30pm 28.8 NNW 12 16 1013.7 - 0.0 - - - - - - -
18/02:00pm 27.7 NNW 14 18 1014.1 - 0.0 - - - - - - -
18/01:30pm 30.1 N 15 19 1014.2 - 0.0 - - - - - - -
18/01:00pm 29.7 N 16 20 1014.6 - 0.0 - - - - - - -
18/12:30pm 28.7 N 15 19 1014.9 - 0.0 - - - - - - -
18/12:00pm 28.2 N 15 18 1015.1 - 0.0 - - - - - - -
18/11:30am 28.7 NNE 16 21 1015.3 - 0.0 - - - - - - -
18/11:00am 27.8 NNE 17 22 1015.4 - 0.0 - - - - - - -
18/10:30am 26.9 NNE 18 24 1015.4 - 0.0 - - - - - - -
18/10:00am 26.2 NNE 16 22 1015.5 - 0.0 - - - - - - -
18/09:30am 24.7 NNE 17 23 1015.4 - 0.0 - - - - - - -
18/09:00am 23.1 NNE 18 23 1015.2 - 0.0 - - - - - - -
18/08:30am 23.1 NNE 17 22 1015.4 - 0.0 - - - - - - -
18/08:00am 21.9 NNE 16 22 1015.6 - 0.0 - - - - - - -
18/07:30am 20.8 NNE 15 19 1015.4 - 0.0 - - - - - - -
18/07:00am 19.2 NE 12 16 1015.3 - 0.0 - - - - - - -
18/06:30am 17.6 NE 11 16 1014.9 - 0.0 - - - - - - -
18/06:00am 16.1 ENE 10 13 1014.7 - 0.0 - - - - - - -
18/05:30am 16.3 ENE 10 13 1014.7 - 0.0 - - - - - - -
18/05:00am 15.4 ENE 8 10 1014.7 - 0.0 - - - - - - -

Other Formats:

Comma delimited format used in spreadsheet applications
http://www.bom.gov.au/fwo/IDS60701/IDS60701.94813.axf

JavaScript Object Notation format (JSON) in row-major order
http://www.bom.gov.au/fwo/IDS60701/IDS60701.94813.json